Time;durP1;ratioP1;P1;durP2;ratioP2;P2;SDS_P1;SDS_P2;PMS_P1;PMS_P2;Temp;Humidity;BMP_temperature;BMP_pressure;BME280_temperature;BME280_humidity;BME280_pressure;Samples;Min_cycle;Max_cycle;Signal;HPM_P1;HPM_P2
2023/07/27 00:02:17;;;;;;;3.63;3.33;;;15.60;1.00;;;;;;5032577;28;20476;-76
2023/07/27 00:04:43;;;;;;;4.63;2.93;;;15.60;1.00;;;;;;5030642;28;20491;-75
2023/07/27 00:07:10;;;;;;;3.63;3.33;;;15.60;1.00;;;;;;5030117;28;20507;-76
2023/07/27 00:09:48;;;;;;;3.60;3.20;;;15.50;1.00;;;;;;5032329;28;20460;-76
2023/07/27 00:12:15;;;;;;;3.83;2.80;;;15.50;1.00;;;;;;5032982;28;20476;-75
2023/07/27 00:14:42;;;;;;;3.17;2.60;;;15.40;1.00;;;;;;5029762;28;20457;-75
2023/07/27 00:17:09;;;;;;;4.47;3.80;;;15.40;1.00;;;;;;5032141;28;20975;-76
2023/07/27 00:19:38;;;;;;;4.23;3.83;;;15.40;1.00;;;;;;5032765;28;20489;-76
2023/07/27 00:22:05;;;;;;;3.60;3.30;;;15.30;1.00;;;;;;5039022;28;20535;-76
2023/07/27 00:24:33;;;;;;;3.60;3.10;;;15.30;1.00;;;;;;5035036;28;20451;-80
2023/07/27 00:27:02;;;;;;;3.50;3.20;;;15.20;1.00;;;;;;5033712;28;20893;-76
2023/07/27 00:29:29;;;;;;;3.20;2.97;;;15.20;1.00;;;;;;5034913;28;20468;-75
2023/07/27 00:31:56;;;;;;;3.40;3.10;;;15.20;1.00;;;;;;5034820;28;21047;-77
2023/07/27 00:34:23;;;;;;;2.93;2.60;;;15.10;1.00;;;;;;5033693;28;20492;-75
2023/07/27 00:36:51;;;;;;;3.50;3.20;;;15.10;1.00;;;;;;5036113;28;20499;-74
2023/07/27 00:39:19;;;;;;;3.33;2.90;;;15.10;1.00;;;;;;5034420;28;20458;-76
2023/07/27 00:41:45;;;;;;;3.83;3.53;;;15.00;1.00;;;;;;5034705;28;20504;-76
2023/07/27 00:44:13;;;;;;;3.80;3.50;;;15.00;1.00;;;;;;5032503;28;20542;-76
2023/07/27 00:46:40;;;;;;;3.83;3.43;;;15.00;1.00;;;;;;5032552;28;20568;-76
2023/07/27 00:49:08;;;;;;;3.07;2.87;;;15.00;1.00;;;;;;5034828;28;20457;-76
2023/07/27 00:51:39;;;;;;;3.47;3.27;;;15.00;1.00;;;;;;5035136;28;20556;-76
2023/07/27 00:54:10;;;;;;;3.53;3.23;;;15.00;1.00;;;;;;5033520;28;20479;-76
2023/07/27 00:56:38;;;;;;;4.03;3.50;;;14.90;1.00;;;;;;5034086;28;20472;-76
2023/07/27 00:59:06;;;;;;;3.73;3.43;;;14.90;1.00;;;;;;5033059;28;20479;-76
2023/07/27 01:01:34;;;;;;;4.30;3.47;;;14.90;1.00;;;;;;5035910;28;20988;-77
2023/07/27 01:04:04;;;;;;;4.57;3.50;;;14.90;1.00;;;;;;5036851;28;20448;-78
2023/07/27 01:06:31;;;;;;;3.77;3.47;;;14.80;1.00;;;;;;5035079;28;20460;-78
2023/07/27 01:08:59;;;;;;;4.67;3.00;;;14.80;1.00;;;;;;5035971;28;20488;-78
2023/07/27 01:11:37;;;;;;;3.10;2.90;;;14.80;1.00;;;;;;5035843;28;20890;-77
2023/07/27 01:14:11;;;;;;;3.13;2.93;;;14.80;1.00;;;;;;5034192;28;21016;-83
2023/07/27 01:16:46;;;;;;;3.47;3.00;;;14.70;1.00;;;;;;5036345;28;20546;-76
2023/07/27 01:19:29;;;;;;;3.30;3.10;;;14.70;1.00;;;;;;5035794;28;20459;-78
2023/07/27 01:22:17;;;;;;;4.33;3.93;;;14.70;1.00;;;;;;5036768;28;20433;-77
2023/07/27 01:25:02;;;;;;;3.80;3.50;;;14.60;1.00;;;;;;5035114;28;20473;-78
2023/07/27 01:27:50;;;;;;;3.53;3.23;;;14.50;1.00;;;;;;5037249;28;20484;-77
2023/07/27 01:30:51;;;;;;;3.40;3.10;;;14.50;1.00;;;;;;5033156;28;20566;-76
2023/07/27 01:33:25;;;;;;;3.47;3.20;;;14.50;1.00;;;;;;5034084;28;20554;-76
2023/07/27 01:36:02;;;;;;;3.50;3.20;;;14.50;1.00;;;;;;5032070;28;20540;-76
2023/07/27 01:38:37;;;;;;;3.67;3.37;;;14.50;1.00;;;;;;5032919;28;20512;-76
2023/07/27 01:41:10;;;;;;;3.90;3.60;;;14.50;1.00;;;;;;5031811;28;20457;-77
2023/07/27 01:43:39;;;;;;;4.00;3.60;;;14.40;1.00;;;;;;5025407;28;20522;-76
2023/07/27 01:46:10;;;;;;;5.30;4.90;;;14.40;1.00;;;;;;5033140;28;20464;-76
2023/07/27 01:48:39;;;;;;;5.30;4.00;;;14.30;1.00;;;;;;5034244;28;20530;-77
2023/07/27 01:51:08;;;;;;;3.93;3.63;;;14.20;1.00;;;;;;5033869;28;20499;-76
2023/07/27 01:53:36;;;;;;;6.17;5.67;;;14.20;1.00;;;;;;5034819;28;20467;-76
2023/07/27 01:56:05;;;;;;;5.00;4.50;;;14.00;1.00;;;;;;5034246;28;20511;-77
2023/07/27 01:58:33;;;;;;;5.30;4.90;;;14.00;1.00;;;;;;5032626;28;20480;-77
2023/07/27 02:01:01;;;;;;;4.90;4.50;;;14.00;1.00;;;;;;5033298;28;20524;-76
2023/07/27 02:03:31;;;;;;;5.33;4.83;;;13.90;1.00;;;;;;5033050;28;20499;-76
2023/07/27 02:05:58;;;;;;;6.40;5.33;;;13.90;1.00;;;;;;5031946;28;20490;-76
2023/07/27 02:08:25;;;;;;;5.47;5.07;;;13.80;1.00;;;;;;5034344;28;20486;-75
2023/07/27 02:10:56;;;;;;;5.43;5.00;;;13.80;1.00;;;;;;5032721;28;20518;-75
2023/07/27 02:13:31;;;;;;;5.80;5.30;;;13.70;1.00;;;;;;5034177;28;20471;-76
2023/07/27 02:16:06;;;;;;;6.50;5.90;;;13.70;1.00;;;;;;5031074;28;20538;-76
2023/07/27 02:18:37;;;;;;;7.07;6.30;;;13.60;1.00;;;;;;5033037;28;20454;-75
2023/07/27 02:25:55;;;;;;;6.43;5.93;;;13.50;1.00;;;;;;5043973;28;20286;-76
2023/07/27 02:28:28;;;;;;;5.87;5.40;;;13.50;1.00;;;;;;5050818;28;20329;-75
2023/07/27 02:30:55;;;;;;;6.43;5.83;;;13.50;1.00;;;;;;5046721;28;20485;-75
2023/07/27 02:33:22;;;;;;;6.60;6.10;;;13.40;1.00;;;;;;5047068;28;20562;-75
2023/07/27 02:35:55;;;;;;;7.23;6.50;;;13.40;1.00;;;;;;5041738;28;20547;-76
2023/07/27 02:38:28;;;;;;;6.20;5.70;;;13.40;1.00;;;;;;5039432;28;20462;-74
2023/07/27 02:40:56;;;;;;;6.50;5.90;;;13.50;1.00;;;;;;5036821;28;20470;-76
2023/07/27 02:43:23;;;;;;;6.80;6.30;;;13.40;1.00;;;;;;5043764;28;21786;-77
2023/07/27 02:45:50;;;;;;;7.17;6.40;;;13.40;1.00;;;;;;5043352;28;20463;-76
2023/07/27 02:48:17;;;;;;;7.10;6.60;;;13.40;1.00;;;;;;5042942;28;20578;-76
2023/07/27 02:50:50;;;;;;;7.23;6.43;;;13.30;1.00;;;;;;5041012;28;21211;-76
2023/07/27 02:53:19;;;;;;;7.27;6.70;;;13.40;1.00;;;;;;5044170;28;21041;-76
2023/07/27 02:55:56;;;;;;;6.57;6.07;;;13.30;1.00;;;;;;5043206;28;20451;-77
2023/07/27 02:58:23;;;;;;;7.57;6.87;;;13.30;1.00;;;;;;5042760;28;20935;-76
2023/07/27 03:00:52;;;;;;;7.23;6.70;;;13.30;1.00;;;;;;5043325;28;20467;-76
2023/07/27 03:03:19;;;;;;;7.20;6.60;;;13.30;1.00;;;;;;5042802;28;20458;-76
2023/07/27 03:05:45;;;;;;;6.00;5.60;;;13.30;1.00;;;;;;5044826;28;20549;-76
2023/07/27 03:08:12;;;;;;;6.73;6.20;;;13.30;1.00;;;;;;5046559;28;20462;-76
2023/07/27 03:10:41;;;;;;;7.57;6.10;;;13.30;1.00;;;;;;5050871;28;20517;-76
2023/07/27 03:13:08;;;;;;;6.63;6.13;;;13.30;1.00;;;;;;5047347;28;20473;-76
2023/07/27 03:15:39;;;;;;;6.47;5.97;;;13.30;1.00;;;;;;5044624;28;21025;-76
2023/07/27 03:18:06;;;;;;;6.87;6.27;;;13.30;1.00;;;;;;5044157;28;20488;-76
2023/07/27 03:20:39;;;;;;;8.00;6.83;;;13.30;1.00;;;;;;5044424;28;20526;-73
2023/07/27 03:23:06;;;;;;;7.40;6.80;;;13.30;1.00;;;;;;5043631;28;20555;-73
2023/07/27 03:25:33;;;;;;;6.87;6.27;;;13.20;1.00;;;;;;5043768;28;20459;-73
2023/07/27 03:28:02;;;;;;;6.93;6.33;;;13.20;1.00;;;;;;5043700;28;20467;-73
2023/07/27 03:30:29;;;;;;;7.00;6.30;;;13.20;1.00;;;;;;5047153;28;20593;-73
2023/07/27 03:32:56;;;;;;;8.10;7.07;;;13.20;1.00;;;;;;5046170;28;20834;-73
2023/07/27 03:35:23;;;;;;;7.57;7.03;;;13.10;1.00;;;;;;5047080;28;20458;-73
2023/07/27 03:37:51;;;;;;;7.73;7.13;;;13.10;1.00;;;;;;5042417;28;20519;-73
2023/07/27 03:40:18;;;;;;;7.80;7.10;;;13.10;1.00;;;;;;5045656;28;20466;-73
2023/07/27 03:42:45;;;;;;;7.20;6.60;;;13.20;1.00;;;;;;5044627;28;20470;-72
2023/07/27 03:45:15;;;;;;;8.30;7.60;;;13.20;1.00;;;;;;5050639;28;21162;-73
2023/07/27 03:47:42;;;;;;;8.03;7.33;;;13.20;1.00;;;;;;5044281;28;20470;-74
2023/07/27 03:50:09;;;;;;;8.50;7.80;;;13.10;1.00;;;;;;5046029;28;21101;-73
2023/07/27 03:52:37;;;;;;;7.80;7.10;;;13.20;1.00;;;;;;5052008;28;20974;-73
2023/07/27 03:55:04;;;;;;;8.23;7.43;;;13.10;1.00;;;;;;5044336;28;20529;-73
2023/07/27 03:57:31;;;;;;;7.43;6.80;;;13.10;1.00;;;;;;5047409;28;20556;-73
2023/07/27 03:59:59;;;;;;;7.77;7.17;;;13.20;1.00;;;;;;5051122;28;20605;-73
2023/07/27 04:02:28;;;;;;;8.97;8.10;;;13.20;1.00;;;;;;5047595;28;20456;-73
2023/07/27 04:04:55;;;;;;;10.57;9.60;;;13.20;1.00;;;;;;5043377;28;20568;-73
2023/07/27 04:07:23;;;;;;;8.93;8.10;;;13.20;1.00;;;;;;5043277;28;20466;-72
2023/07/27 04:09:59;;;;;;;8.33;7.70;;;13.20;1.00;;;;;;5046903;28;20458;-74
2023/07/27 04:12:26;;;;;;;7.73;7.13;;;13.20;1.00;;;;;;5047522;28;20597;-73
2023/07/27 04:14:53;;;;;;;7.53;6.90;;;13.30;1.00;;;;;;5043837;28;20475;-73
2023/07/27 04:17:20;;;;;;;9.00;8.30;;;13.30;1.00;;;;;;5051184;28;20458;-74
2023/07/27 04:19:48;;;;;;;8.47;7.77;;;13.30;1.00;;;;;;5047902;28;20969;-72
2023/07/27 04:22:15;;;;;;;7.70;7.10;;;13.30;1.00;;;;;;5034881;28;20607;-73
2023/07/27 04:24:45;;;;;;;8.47;7.60;;;13.40;1.00;;;;;;5035045;28;20944;-74
2023/07/27 04:27:11;;;;;;;9.53;8.40;;;13.40;1.00;;;;;;5047113;28;20470;-72
2023/07/27 04:29:38;;;;;;;7.37;6.67;;;13.40;1.00;;;;;;5045919;28;20510;-73
2023/07/27 04:32:06;;;;;;;8.10;7.30;;;13.50;1.00;;;;;;5045609;28;20480;-72
2023/07/27 04:34:33;;;;;;;8.63;7.80;;;13.50;1.00;;;;;;5045223;28;20551;-72
2023/07/27 04:37:02;;;;;;;13.87;9.07;;;13.50;1.00;;;;;;5050090;28;20500;-72
2023/07/27 04:39:31;;;;;;;8.60;7.80;;;13.50;1.00;;;;;;5046948;28;20466;-72
2023/07/27 04:41:58;;;;;;;11.53;8.10;;;13.60;1.00;;;;;;5046835;28;20465;-72
2023/07/27 04:44:26;;;;;;;10.17;9.27;;;13.60;1.00;;;;;;5050341;28;20465;-72
2023/07/27 04:46:53;;;;;;;9.37;8.47;;;13.60;1.00;;;;;;5045177;28;20502;-72
2023/07/27 04:49:20;;;;;;;9.73;8.90;;;13.60;1.00;;;;;;5047860;28;20464;-73
2023/07/27 04:51:47;;;;;;;9.20;8.40;;;13.60;1.00;;;;;;5044270;28;20885;-73
2023/07/27 04:54:15;;;;;;;9.30;8.40;;;13.60;1.00;;;;;;5045175;28;20518;-73
2023/07/27 04:56:42;;;;;;;10.47;9.33;;;13.60;1.00;;;;;;5047820;28;20470;-73
2023/07/27 04:59:09;;;;;;;11.70;10.50;;;13.60;1.00;;;;;;5047154;28;20512;-73
2023/07/27 05:01:36;;;;;;;11.10;9.97;;;13.60;1.00;;;;;;5051181;28;20482;-74
2023/07/27 05:04:03;;;;;;;10.37;9.47;;;13.60;1.00;;;;;;5052513;28;20454;-72
2023/07/27 05:06:30;;;;;;;10.27;9.30;;;13.70;1.00;;;;;;5048262;28;20538;-72
2023/07/27 05:08:57;;;;;;;9.57;8.67;;;13.70;1.00;;;;;;5045124;28;20980;-72
2023/07/27 05:11:26;;;;;;;8.97;8.27;;;13.80;1.00;;;;;;5044478;28;20881;-72
2023/07/27 05:13:53;;;;;;;9.17;7.93;;;13.90;1.00;;;;;;5048960;28;20484;-72
2023/07/27 05:16:20;;;;;;;8.23;7.60;;;13.90;1.00;;;;;;5046488;28;20581;-72
2023/07/27 05:18:47;;;;;;;7.90;7.10;;;14.00;1.00;;;;;;5048425;28;20487;-71
2023/07/27 05:21:14;;;;;;;7.53;6.93;;;14.00;1.00;;;;;;5045930;28;20904;-72
2023/07/27 05:23:41;;;;;;;7.10;6.40;;;14.00;1.00;;;;;;5047473;28;20454;-73
2023/07/27 05:26:08;;;;;;;7.77;7.07;;;14.00;1.00;;;;;;5044869;28;20518;-73
2023/07/27 05:28:36;;;;;;;7.67;6.70;;;14.00;1.00;;;;;;5047302;28;20838;-73
2023/07/27 05:31:03;;;;;;;6.90;6.30;;;14.20;1.00;;;;;;5047991;28;20554;-73
2023/07/27 05:33:30;;;;;;;7.70;7.00;;;14.40;1.00;;;;;;5043734;28;20456;-73
2023/07/27 05:35:57;;;;;;;6.33;5.73;;;14.60;1.00;;;;;;5045665;28;20524;-76
2023/07/27 05:38:24;;;;;;;6.00;5.50;;;14.60;1.00;;;;;;5052701;28;20595;-78
2023/07/27 05:40:51;;;;;;;6.50;6.00;;;14.70;1.00;;;;;;5046892;28;20921;-78
2023/07/27 05:43:18;;;;;;;7.37;6.03;;;14.80;1.00;;;;;;5050085;28;20550;-78
2023/07/27 05:45:46;;;;;;;5.73;5.20;;;15.00;1.00;;;;;;5047217;28;20488;-78
2023/07/27 05:48:13;;;;;;;5.80;5.30;;;15.20;1.00;;;;;;5049530;28;20451;-78
2023/07/27 05:50:40;;;;;;;5.90;5.40;;;15.30;1.00;;;;;;5047153;28;20745;-77
2023/07/27 05:53:07;;;;;;;7.23;5.33;;;15.50;1.00;;;;;;5046837;28;20449;-78
2023/07/27 05:55:34;;;;;;;8.27;5.40;;;15.70;1.00;;;;;;5048855;28;20608;-78
2023/07/27 05:58:01;;;;;;;5.60;5.03;;;15.80;1.00;;;;;;5048220;28;20467;-78
2023/07/27 06:00:28;;;;;;;5.43;5.03;;;15.90;1.00;;;;;;5049330;28;20531;-78
2023/07/27 06:02:56;;;;;;;4.57;4.17;;;16.20;1.00;;;;;;5046990;28;21036;-78
2023/07/27 06:05:23;;;;;;;4.80;4.30;;;16.40;1.00;;;;;;5048183;28;20472;-78
2023/07/27 06:07:51;;;;;;;4.33;3.97;;;16.60;1.00;;;;;;5045804;28;20457;-77
2023/07/27 06:10:19;;;;;;;5.77;5.27;;;16.70;1.00;;;;;;5047878;28;20467;-77
2023/07/27 06:12:46;;;;;;;4.50;4.10;;;16.80;1.00;;;;;;5049654;28;20468;-78
2023/07/27 06:15:13;;;;;;;4.27;3.90;;;17.00;1.00;;;;;;5044759;28;20886;-78
2023/07/27 06:17:40;;;;;;;4.37;4.00;;;17.20;1.00;;;;;;5048667;28;20590;-77
2023/07/27 06:20:09;;;;;;;5.10;4.60;;;17.40;1.00;;;;;;5051419;28;20488;-77
2023/07/27 06:22:36;;;;;;;6.20;5.10;;;17.60;1.00;;;;;;5043242;28;20457;-77
2023/07/27 06:25:04;;;;;;;4.90;4.40;;;17.60;1.00;;;;;;5043407;28;21419;-78
2023/07/27 06:27:31;;;;;;;5.07;4.57;;;17.70;1.00;;;;;;5045648;28;20464;-78
2023/07/27 06:29:58;;;;;;;4.70;4.30;;;17.70;1.00;;;;;;5053075;28;20887;-76
2023/07/27 06:32:28;;;;;;;5.40;4.90;;;17.70;1.00;;;;;;5050257;28;20580;-79
2023/07/27 06:34:55;;;;;;;5.03;4.53;;;17.60;1.00;;;;;;5044107;28;20522;-78
2023/07/27 06:37:23;;;;;;;4.70;4.30;;;17.50;1.00;;;;;;5045852;28;20462;-78
2023/07/27 06:39:50;;;;;;;5.30;4.57;;;17.60;1.00;;;;;;5027737;28;20441;-79
2023/07/27 06:42:17;;;;;;;6.03;4.83;;;17.60;1.00;;;;;;5044638;28;20469;-79
2023/07/27 06:44:44;;;;;;;5.57;3.90;;;17.60;1.00;;;;;;5045793;28;20929;-78
2023/07/27 06:47:12;;;;;;;5.63;5.20;;;17.60;1.00;;;;;;5047286;28;20548;-78
2023/07/27 06:49:39;;;;;;;5.60;4.00;;;17.60;1.00;;;;;;5046296;28;20462;-79
2023/07/27 06:52:08;;;;;;;5.27;4.80;;;17.60;1.00;;;;;;5047339;28;20471;-78
2023/07/27 06:54:39;;;;;;;4.70;4.30;;;17.60;1.00;;;;;;5045610;28;20512;-78
2023/07/27 06:57:10;;;;;;;4.87;4.47;;;17.60;1.00;;;;;;5046854;28;20448;-78
2023/07/27 06:59:37;;;;;;;4.40;4.00;;;17.60;1.00;;;;;;5045171;28;20841;-77
2023/07/27 07:02:06;;;;;;;4.87;4.47;;;17.70;1.00;;;;;;5047158;28;20473;-76
2023/07/27 07:04:33;;;;;;;5.80;4.30;;;17.90;1.00;;;;;;5045157;28;20473;-77
2023/07/27 07:07:00;;;;;;;4.20;3.80;;;18.00;1.00;;;;;;5043681;28;20451;-77
2023/07/27 07:09:27;;;;;;;4.63;4.10;;;18.10;1.00;;;;;;5047640;28;20559;-77
2023/07/27 07:11:55;;;;;;;5.47;4.27;;;18.20;1.00;;;;;;5044322;28;20474;-77
2023/07/27 07:14:22;;;;;;;5.00;3.97;;;18.20;1.00;;;;;;5037005;28;20896;-77
2023/07/27 07:16:49;;;;;;;4.57;4.10;;;18.20;1.00;;;;;;5044782;28;20887;-77
2023/07/27 07:19:16;;;;;;;4.60;4.20;;;18.20;1.00;;;;;;5047074;28;20469;-76
2023/07/27 07:21:43;;;;;;;4.20;3.80;;;18.20;1.00;;;;;;5046810;28;20463;-76
2023/07/27 07:24:10;;;;;;;4.87;4.47;;;18.20;1.00;;;;;;5043366;28;20512;-77
2023/07/27 07:26:37;;;;;;;4.27;3.87;;;18.30;1.00;;;;;;5045756;28;21010;-77
2023/07/27 07:29:07;;;;;;;6.30;4.60;;;18.50;1.00;;;;;;5047675;28;20465;-77
2023/07/27 07:31:34;;;;;;;4.50;4.10;;;18.60;1.00;;;;;;5048626;28;20474;-77
2023/07/27 07:34:01;;;;;;;4.53;4.17;;;18.70;1.00;;;;;;5052639;28;20519;-77
2023/07/27 07:36:28;;;;;;;5.50;4.50;;;18.80;1.00;;;;;;5052943;28;20528;-77
2023/07/27 07:38:55;;;;;;;6.80;3.80;;;19.00;1.00;;;;;;5056207;28;20551;-78
2023/07/27 07:41:22;;;;;;;4.57;4.23;;;19.20;1.00;;;;;;5053961;28;20469;-78
2023/07/27 07:43:49;;;;;;;4.50;4.10;;;19.30;1.00;;;;;;5048652;28;20486;-78
2023/07/27 07:46:18;;;;;;;4.67;4.37;;;19.30;1.00;;;;;;5055374;28;20456;-78
2023/07/27 07:48:45;;;;;;;4.93;4.43;;;19.30;1.00;;;;;;5052830;28;20478;-77
2023/07/27 07:51:12;;;;;;;4.73;4.33;;;19.40;1.00;;;;;;5054570;28;20505;-76
2023/07/27 07:53:40;;;;;;;5.70;4.13;;;19.70;1.00;;;;;;5055654;28;20513;-75
2023/07/27 07:56:13;;;;;;;5.40;4.67;;;19.90;1.00;;;;;;5050755;28;20446;-76
2023/07/27 07:58:40;;;;;;;4.40;4.10;;;20.10;1.00;;;;;;5049937;28;20897;-76
2023/07/27 08:01:07;;;;;;;4.77;4.30;;;20.30;1.00;;;;;;5054159;28;20444;-76
2023/07/27 08:03:36;;;;;;;9.13;4.43;;;20.50;1.00;;;;;;5051096;28;20477;-77
2023/07/27 08:06:03;;;;;;;4.53;4.13;;;20.30;1.00;;;;;;5052991;28;20484;-77
2023/07/27 08:08:30;;;;;;;4.30;3.90;;;20.40;1.00;;;;;;5051777;28;20457;-77
2023/07/27 08:11:02;;;;;;;4.80;4.30;;;20.50;1.00;;;;;;5050597;28;20512;-77
2023/07/27 08:13:29;;;;;;;4.70;4.30;;;20.20;1.00;;;;;;5051191;28;20466;-78
2023/07/27 08:15:57;;;;;;;7.30;6.70;;;20.00;1.00;;;;;;5051214;28;20902;-77
2023/07/27 08:18:24;;;;;;;4.70;4.30;;;20.00;1.00;;;;;;5051220;28;20555;-77
2023/07/27 08:21:04;;;;;;;4.80;4.40;;;20.10;1.00;;;;;;5053262;28;20524;-77
2023/07/27 08:23:32;;;;;;;5.40;4.90;;;20.20;1.00;;;;;;5039582;28;20477;-77
2023/07/27 08:26:00;;;;;;;6.27;5.00;;;20.20;1.00;;;;;;5053322;28;20467;-77
2023/07/27 08:28:27;;;;;;;5.37;4.97;;;20.20;1.00;;;;;;5053206;28;21210;-77
2023/07/27 08:30:54;;;;;;;5.40;4.30;;;20.20;1.00;;;;;;5054579;28;20461;-76
2023/07/27 08:33:21;;;;;;;5.20;4.80;;;20.30;1.00;;;;;;5051080;28;20519;-77
2023/07/27 08:35:48;;;;;;;5.03;4.63;;;20.30;1.00;;;;;;5048647;28;20955;-77
2023/07/27 08:38:17;;;;;;;4.30;3.90;;;20.10;1.00;;;;;;5050704;28;20524;-77
2023/07/27 08:40:54;;;;;;;5.00;4.60;;;20.10;1.00;;;;;;5048340;28;20464;-77
2023/07/27 08:43:21;;;;;;;5.27;4.47;;;20.20;1.00;;;;;;5048782;28;20598;-76
2023/07/27 08:45:48;;;;;;;4.67;4.30;;;20.30;1.00;;;;;;5047231;28;20453;-77
2023/07/27 08:48:16;;;;;;;5.03;4.50;;;20.20;1.00;;;;;;5049414;28;20458;-77
2023/07/27 08:50:44;;;;;;;4.33;3.93;;;20.20;1.00;;;;;;5048410;28;20556;-77
2023/07/27 08:53:11;;;;;;;4.60;4.20;;;20.30;1.00;;;;;;5046987;28;20496;-77
2023/07/27 08:55:41;;;;;;;4.20;3.80;;;20.20;1.00;;;;;;5036633;28;20548;-76
2023/07/27 08:58:09;;;;;;;4.80;4.30;;;20.30;1.00;;;;;;5046277;28;21034;-77
2023/07/27 09:00:38;;;;;;;5.70;4.37;;;20.20;1.00;;;;;;5044759;28;20534;-77
2023/07/27 09:03:05;;;;;;;4.30;3.90;;;20.20;1.00;;;;;;5046549;28;20470;-76
2023/07/27 09:05:39;;;;;;;5.50;4.43;;;20.10;1.00;;;;;;5050134;28;20499;-77
2023/07/27 09:08:08;;;;;;;9.27;4.93;;;20.20;1.00;;;;;;5044678;28;20481;-77
2023/07/27 09:10:35;;;;;;;4.80;4.03;;;20.10;1.00;;;;;;5050034;28;20471;-76
2023/07/27 09:13:04;;;;;;;4.47;4.07;;;20.30;1.00;;;;;;5046640;28;20908;-78
2023/07/27 09:15:31;;;;;;;4.90;4.50;;;20.40;1.00;;;;;;5048850;28;20460;-77
2023/07/27 09:18:01;;;;;;;5.03;4.63;;;20.40;1.00;;;;;;5042198;28;20473;-77
2023/07/27 09:20:28;;;;;;;4.70;4.30;;;20.30;1.00;;;;;;5047560;28;20487;-78
2023/07/27 09:22:56;;;;;;;5.13;4.50;;;20.40;1.00;;;;;;5046506;28;20484;-78
2023/07/27 09:25:24;;;;;;;5.60;5.10;;;20.30;1.00;;;;;;5046876;28;20491;-77
2023/07/27 09:27:54;;;;;;;4.47;4.07;;;20.30;1.00;;;;;;5044646;28;20496;-77
2023/07/27 09:30:23;;;;;;;5.73;4.30;;;20.30;1.00;;;;;;5050302;28;20910;-77
2023/07/27 09:32:51;;;;;;;6.63;4.93;;;20.30;1.00;;;;;;5043523;28;21090;-77
2023/07/27 09:35:19;;;;;;;4.97;4.47;;;20.30;1.00;;;;;;5047915;28;20451;-77
2023/07/27 09:37:48;;;;;;;5.03;4.33;;;20.50;1.00;;;;;;5048422;28;20953;-78
2023/07/27 09:40:17;;;;;;;5.03;4.57;;;20.50;1.00;;;;;;5049268;28;20519;-76
2023/07/27 09:42:45;;;;;;;4.83;4.43;;;20.60;1.00;;;;;;5048523;28;20481;-76
2023/07/27 09:45:12;;;;;;;4.97;4.57;;;20.60;1.00;;;;;;5042557;28;21251;-76
2023/07/27 09:47:41;;;;;;;4.90;4.33;;;20.60;1.00;;;;;;5048301;28;20942;-76
2023/07/27 09:50:09;;;;;;;4.70;4.30;;;20.70;1.00;;;;;;5046821;28;20464;-76
2023/07/27 09:52:38;;;;;;;8.57;4.83;;;20.90;1.00;;;;;;5044800;28;20559;-75
2023/07/27 09:55:06;;;;;;;5.00;4.50;;;21.00;1.00;;;;;;5044411;28;20536;-76
2023/07/27 09:57:33;;;;;;;5.10;4.70;;;21.00;1.00;;;;;;5046124;28;20519;-75
2023/07/27 10:00:04;;;;;;;5.20;4.70;;;20.80;1.00;;;;;;5048651;28;20817;-76
2023/07/27 10:02:31;;;;;;;4.87;4.43;;;21.00;1.00;;;;;;5045608;28;20474;-76
2023/07/27 10:05:00;;;;;;;5.80;5.23;;;21.20;1.00;;;;;;5045475;28;20811;-76
2023/07/27 10:07:28;;;;;;;5.10;4.60;;;21.30;1.00;;;;;;5044137;28;20599;-76
2023/07/27 10:10:36;;;;;;;7.20;5.00;;;21.50;1.00;;;;;;5045973;28;20477;-76
2023/07/27 10:13:07;;;;;;;8.90;5.87;;;21.70;1.00;;;;;;5048091;28;21648;-76
2023/07/27 10:15:40;;;;;;;5.53;4.87;;;21.80;1.00;;;;;;5044887;28;21106;-76
2023/07/27 10:18:07;;;;;;;5.07;4.57;;;21.80;1.00;;;;;;5050672;28;20459;-76
2023/07/27 10:20:36;;;;;;;7.77;6.90;;;21.80;1.00;;;;;;5051100;28;20477;-76
2023/07/27 10:23:11;;;;;;;5.00;4.60;;;21.80;1.00;;;;;;5047769;28;20464;-76
2023/07/27 10:26:06;;;;;;;6.27;4.93;;;22.10;1.00;;;;;;5049081;28;20455;-76
2023/07/27 10:28:37;;;;;;;4.93;4.43;;;22.30;1.00;;;;;;5041651;28;20472;-76
2023/07/27 10:31:23;;;;;;;4.77;4.27;;;22.40;1.00;;;;;;5041750;28;20517;-76
2023/07/27 10:33:55;;;;;;;4.30;3.90;;;22.80;1.00;;;;;;5044450;28;20479;-72
2023/07/27 10:36:24;;;;;;;5.20;4.70;;;23.00;1.00;;;;;;5046034;28;20453;-73
2023/07/27 10:38:53;;;;;;;5.00;4.60;;;22.70;1.00;;;;;;5044473;28;20483;-72
2023/07/27 10:41:22;;;;;;;4.13;3.80;;;22.50;1.00;;;;;;5047661;28;20463;-72
2023/07/27 10:44:18;;;;;;;4.73;4.33;;;22.60;1.00;;;;;;5043652;28;20893;-72
2023/07/27 10:46:48;;;;;;;4.50;3.93;;;22.70;1.00;;;;;;5042202;28;20455;-72
2023/07/27 10:49:17;;;;;;;6.43;4.00;;;22.50;1.00;;;;;;5045956;28;20582;-78
2023/07/27 10:51:47;;;;;;;3.90;3.60;;;22.10;1.00;;;;;;5048756;28;20547;-77
2023/07/27 10:54:15;;;;;;;3.63;3.33;;;22.20;1.00;;;;;;5049431;28;20906;-78
2023/07/27 10:56:43;;;;;;;4.60;4.10;;;22.20;1.00;;;;;;5049708;28;20514;-76
2023/07/27 10:59:13;;;;;;;4.13;3.73;;;22.20;1.00;;;;;;5046943;28;20836;-77
2023/07/27 11:01:41;;;;;;;5.43;4.30;;;22.30;1.00;;;;;;5046813;28;20980;-75
2023/07/27 11:04:09;;;;;;;4.60;4.20;;;22.20;1.00;;;;;;5045069;28;20468;-78
2023/07/27 11:06:44;;;;;;;4.37;3.93;;;22.20;1.00;;;;;;5049868;28;20474;-77
2023/07/27 11:09:13;;;;;;;4.00;3.70;;;21.90;1.00;;;;;;5042560;28;20460;-77
2023/07/27 11:11:41;;;;;;;5.90;5.33;;;21.70;1.00;;;;;;5049048;28;20485;-76
2023/07/27 11:14:08;;;;;;;5.00;4.20;;;21.70;1.00;;;;;;5048364;28;20466;-78
2023/07/27 11:16:38;;;;;;;5.27;4.87;;;21.70;1.00;;;;;;5046478;28;20538;-78
2023/07/27 11:19:07;;;;;;;6.93;4.87;;;21.80;1.00;;;;;;5048002;28;20953;-77
2023/07/27 11:21:39;;;;;;;4.80;4.40;;;21.70;1.00;;;;;;5048379;28;20510;-77
2023/07/27 11:24:08;;;;;;;5.00;4.23;;;21.60;1.00;;;;;;5046122;28;21314;-78
2023/07/27 11:26:38;;;;;;;4.50;4.10;;;21.50;1.00;;;;;;5046761;28;20492;-78
2023/07/27 11:29:06;;;;;;;4.37;4.07;;;21.50;1.00;;;;;;5046207;28;20455;-78
2023/07/27 11:31:33;;;;;;;5.30;4.27;;;21.50;1.00;;;;;;5046908;28;20491;-79
2023/07/27 11:34:01;;;;;;;5.40;4.40;;;21.60;1.00;;;;;;5046125;28;20470;-77
2023/07/27 11:36:30;;;;;;;5.40;4.00;;;21.60;1.00;;;;;;5047054;28;20449;-78
2023/07/27 11:38:57;;;;;;;6.20;4.20;;;21.50;1.00;;;;;;5042824;28;20479;-78
2023/07/27 11:41:28;;;;;;;4.53;4.13;;;21.10;1.00;;;;;;5045100;28;20469;-77
2023/07/27 11:43:58;;;;;;;5.23;4.73;;;21.00;1.00;;;;;;5044554;28;20469;-78
2023/07/27 11:46:27;;;;;;;4.80;4.40;;;20.80;1.00;;;;;;5047924;28;20963;-78
2023/07/27 11:48:56;;;;;;;5.13;4.67;;;20.60;1.00;;;;;;5044787;28;20519;-78
2023/07/27 11:51:25;;;;;;;5.50;5.00;;;20.70;1.00;;;;;;5047828;28;20423;-78
2023/07/27 11:53:53;;;;;;;4.97;4.57;;;20.80;1.00;;;;;;5046860;28;20475;-78
2023/07/27 11:56:20;;;;;;;4.63;4.23;;;20.90;1.00;;;;;;5046440;28;20528;-76
2023/07/27 11:58:48;;;;;;;5.67;4.73;;;21.00;1.00;;;;;;5042713;28;20454;-76
2023/07/27 12:01:17;;;;;;;6.60;4.73;;;20.90;1.00;;;;;;5043657;28;20982;-78
2023/07/27 12:03:44;;;;;;;5.67;5.10;;;20.90;1.00;;;;;;5042148;28;20537;-77
2023/07/27 12:06:12;;;;;;;6.73;6.13;;;21.00;1.00;;;;;;5046980;28;20521;-77
2023/07/27 12:08:39;;;;;;;5.53;5.03;;;21.00;1.00;;;;;;5043700;28;20543;-77
2023/07/27 12:11:09;;;;;;;6.50;5.50;;;21.00;1.00;;;;;;5046113;28;20454;-76
2023/07/27 12:13:37;;;;;;;6.10;5.60;;;21.00;1.00;;;;;;5044392;28;20504;-76
2023/07/27 12:16:07;;;;;;;6.00;5.40;;;21.00;1.00;;;;;;5044808;28;20455;-76
2023/07/27 12:18:35;;;;;;;5.40;4.50;;;21.10;1.00;;;;;;5049803;28;20470;-77
2023/07/27 12:21:03;;;;;;;4.83;4.47;;;21.20;1.00;;;;;;5035615;28;20466;-77
2023/07/27 12:23:30;;;;;;;5.53;5.03;;;21.10;1.00;;;;;;5043617;28;20535;-77
2023/07/27 12:25:57;;;;;;;6.30;5.67;;;21.20;1.00;;;;;;5047718;28;20507;-76
2023/07/27 12:28:23;;;;;;;6.20;5.60;;;21.30;1.00;;;;;;5047120;28;20468;-76
2023/07/27 12:30:51;;;;;;;5.27;4.80;;;21.40;1.00;;;;;;5043632;28;20452;-76
2023/07/27 12:33:21;;;;;;;5.30;4.47;;;21.50;1.00;;;;;;5048815;28;20456;-77
2023/07/27 12:35:51;;;;;;;5.80;5.10;;;21.40;1.00;;;;;;5047686;28;20505;-76
2023/07/27 12:38:18;;;;;;;5.43;4.93;;;21.30;1.00;;;;;;5047871;28;20457;-77
2023/07/27 12:40:45;;;;;;;5.10;4.60;;;21.20;1.00;;;;;;5047326;28;20584;-76
2023/07/27 12:43:12;;;;;;;6.17;5.67;;;21.00;1.00;;;;;;5047153;28;20474;-76
2023/07/27 12:45:39;;;;;;;6.47;5.00;;;20.90;1.00;;;;;;5047868;28;20569;-77
2023/07/27 12:48:07;;;;;;;5.90;5.40;;;21.00;1.00;;;;;;5047630;28;20485;-77
2023/07/27 12:50:34;;;;;;;5.50;4.70;;;21.20;1.00;;;;;;5049014;28;20426;-78
2023/07/27 12:53:02;;;;;;;5.27;4.77;;;21.50;1.00;;;;;;5049404;28;20459;-77
2023/07/27 12:55:30;;;;;;;5.30;4.80;;;21.70;1.00;;;;;;5048216;28;20493;-78
2023/07/27 12:57:57;;;;;;;5.50;4.97;;;21.90;1.00;;;;;;5048248;28;20478;-77
2023/07/27 13:00:24;;;;;;;6.90;5.87;;;22.00;1.00;;;;;;5049635;28;20467;-79
2023/07/27 13:02:51;;;;;;;5.13;4.63;;;22.00;1.00;;;;;;5048440;28;20561;-78
2023/07/27 13:05:18;;;;;;;8.73;5.40;;;21.90;1.00;;;;;;5046847;28;20506;-77
2023/07/27 13:07:46;;;;;;;7.50;6.67;;;21.70;1.00;;;;;;5044567;28;20485;-77
2023/07/27 13:10:17;;;;;;;6.00;5.40;;;21.40;1.00;;;;;;5046549;28;20977;-77
2023/07/27 13:12:44;;;;;;;5.10;4.67;;;21.50;1.00;;;;;;5042770;28;20873;-72